Flight Track Log - Related Links

Times and Time Zones

All times are in EDT time to prevent confusion due to time zone crossing. See the UAL143 flight status page for this flight to view local times or setup timezone preferences in your user account.

Time Position Orientation Groundspeed Altitude Reporting Facility
EDT Latitude Longitude Course Direction KTS MPH feet Rate Location/Type
Mon 05:41:00 PM 7.1286 1.4721 287° West  Level FlightAware Approximate
Mon 05:42:00 PM 7.1651 1.3486 287° West  Level FlightAware Approximate
Mon 05:43:00 PM 7.2301 1.2378 302° West  Level Estimated
Mon 05:44:00 PM 7.2821 1.1201 294° West  Level FlightAware Approximate
Mon 05:45:00 PM 7.3341 1.0024 294° West  Level FlightAware Approximate
Mon 05:46:00 PM 7.3861 0.8847 294° West  Level FlightAware Approximate
Mon 05:47:00 PM 7.4380 0.7669 294° West  Level FlightAware Approximate
Mon 05:48:00 PM 7.4899 0.6491 294° West  Level FlightAware Approximate
Mon 05:49:00 PM 7.5417 0.5313 294° West  Level FlightAware Approximate
Mon 05:50:00 PM 7.5935 0.4135 294° West  Level FlightAware Approximate
Mon 05:51:00 PM 7.6453 0.2956 294° West  Level FlightAware Approximate
Mon 05:52:00 PM 7.6971 0.1777 294° West  Level FlightAware Approximate
Mon 05:53:00 PM 7.7488 0.0598 294° West  Level FlightAware Approximate
Mon 05:54:00 PM 7.8005 -0.0581 294° West  Level FlightAware Approximate
Mon 05:55:00 PM 7.8522 -0.1761 294° West  Level FlightAware Approximate
Mon 05:56:00 PM 7.9038 -0.2941 294° West  Level FlightAware Approximate
Mon 05:57:00 PM 7.9554 -0.4122 294° West  Level FlightAware Approximate
Mon 05:58:00 PM 8.0199 -0.5235 302° West  Level Estimated
Mon 05:59:00 PM 8.0859 -0.6341 301° West  Level FlightAware Approximate
Mon 06:00:00 PM 8.1518 -0.7447 301° West  Level FlightAware Approximate
Mon 06:01:00 PM 8.2176 -0.8553 301° West  Level FlightAware Approximate
Mon 06:02:00 PM 8.2835 -0.9660 301° West  Level FlightAware Approximate
Mon 06:03:00 PM 8.3493 -1.0767 301° West  Level FlightAware Approximate
Mon 06:04:00 PM 8.4151 -1.1874 301° West  Level FlightAware Approximate
Mon 06:05:00 PM 8.4808 -1.2982 301° West  Level FlightAware Approximate
Mon 06:06:00 PM 8.5465 -1.4090 301° West  Level FlightAware Approximate
Mon 06:07:00 PM 8.6122 -1.5199 301° West  Level FlightAware Approximate
Mon 06:08:00 PM 8.6779 -1.6308 301° West  Level FlightAware Approximate
Mon 06:09:00 PM 8.7435 -1.7417 301° West  Level FlightAware Approximate
Mon 06:10:00 PM 8.8091 -1.8527 301° West  Level FlightAware Approximate
Mon 06:11:00 PM 8.8747 -1.9637 301° West  Level FlightAware Approximate
Mon 06:12:00 PM 8.9402 -2.0747 301° West  Level FlightAware Approximate
Mon 06:13:00 PM 9.0057 -2.1858 301° West  Level FlightAware Approximate
Mon 06:14:00 PM 9.0711 -2.2970 301° West  Level FlightAware Approximate
Mon 06:15:00 PM 9.1366 -2.4081 301° West  Level FlightAware Approximate
Mon 06:16:00 PM 9.2020 -2.5193 301° West  Level FlightAware Approximate
Mon 06:17:00 PM 9.2673 -2.6306 301° West  Level FlightAware Approximate
Mon 06:18:00 PM 9.3326 -2.7419 301° West  Level FlightAware Approximate
Mon 06:19:00 PM 9.3979 -2.8532 301° West  Level FlightAware Approximate
Mon 06:20:00 PM 9.4632 -2.9646 301° West  Level FlightAware Approximate
Mon 06:21:00 PM 9.5284 -3.0760 301° West  Level FlightAware Approximate
Mon 06:22:00 PM 9.5936 -3.1875 301° West  Level FlightAware Approximate
Mon 06:23:00 PM 9.6587 -3.2990 301° West  Level FlightAware Approximate
Mon 06:24:00 PM 9.7238 -3.4105 301° West  Level FlightAware Approximate
Mon 06:25:00 PM 9.7889 -3.5221 301° West  Level FlightAware Approximate
Mon 06:26:00 PM 9.8540 -3.6337 301° West  Level FlightAware Approximate
Mon 06:27:00 PM 9.9190 -3.7454 301° West  Level FlightAware Approximate
Mon 06:28:00 PM 9.9839 -3.8572 301° West  Level FlightAware Approximate
Mon 06:29:00 PM 10.0489 -3.9689 301° West  Level FlightAware Approximate
Mon 06:30:00 PM 10.1138 -4.0807 301° West  Level FlightAware Approximate
Mon 06:31:00 PM 10.1786 -4.1926 301° West  Level FlightAware Approximate
Mon 06:32:00 PM 10.2434 -4.3045 300° West  Level FlightAware Approximate
Mon 06:33:00 PM 10.3082 -4.4164 300° West  Level FlightAware Approximate
Mon 06:34:00 PM 10.3729 -4.5284 300° West  Level FlightAware Approximate
Mon 06:35:00 PM 10.4376 -4.6405 300° West  Level FlightAware Approximate
Mon 06:36:00 PM 10.5023 -4.7526 300° West  Level FlightAware Approximate
Mon 06:37:00 PM 10.5669 -4.8647 300° West  Level FlightAware Approximate
Mon 06:38:00 PM 10.6315 -4.9769 300° West  Level FlightAware Approximate
Mon 06:39:00 PM 10.6960 -5.0891 300° West  Level FlightAware Approximate
Mon 06:40:00 PM 10.7605 -5.2014 300° West  Level FlightAware Approximate
Mon 06:41:00 PM 10.8250 -5.3137 300° West  Level FlightAware Approximate
Mon 06:42:00 PM 10.8894 -5.4261 300° West  Level FlightAware Approximate
Mon 06:43:00 PM 10.9538 -5.5385 300° West  Level FlightAware Approximate
Mon 06:44:00 PM 11.0181 -5.6510 300° West  Level FlightAware Approximate
Mon 06:45:00 PM 11.0824 -5.7635 300° West  Level FlightAware Approximate
Mon 06:46:00 PM 11.1467 -5.8761 300° West  Level FlightAware Approximate
Mon 06:47:00 PM 11.2109 -5.9887 300° West  Level FlightAware Approximate
Mon 06:48:00 PM 11.2751 -6.1014 300° West  Level FlightAware Approximate
Mon 06:49:00 PM 11.3392 -6.2141 300° West  Level FlightAware Approximate
Mon 06:50:00 PM 11.4033 -6.3269 300° West  Level FlightAware Approximate
Mon 06:51:00 PM 11.4673 -6.4397 300° West  Level FlightAware Approximate
Mon 06:52:00 PM 11.5313 -6.5525 300° West  Level FlightAware Approximate
Mon 06:53:00 PM 11.5953 -6.6655 300° West  Level FlightAware Approximate
Mon 06:54:00 PM 11.6592 -6.7785 300° West  Level FlightAware Approximate
Mon 06:55:00 PM 11.7231 -6.8915 300° West  Level FlightAware Approximate
Mon 06:56:00 PM 11.7869 -7.0046 300° West  Level FlightAware Approximate
Mon 06:57:00 PM 11.8507 -7.1177 300° West  Level FlightAware Approximate
Mon 06:58:00 PM 11.9144 -7.2309 300° West  Level FlightAware Approximate
Mon 06:59:00 PM 11.9781 -7.3441 300° West  Level FlightAware Approximate
Mon 07:00:00 PM 12.0418 -7.4574 300° West  Level FlightAware Approximate
Mon 07:01:00 PM 12.1054 -7.5708 300° West  Level FlightAware Approximate
Mon 07:02:00 PM 12.1689 -7.6842 300° West  Level FlightAware Approximate
Mon 07:03:00 PM 12.2324 -7.7976 300° West  Level FlightAware Approximate
Mon 07:04:00 PM 12.2959 -7.9111 300° West  Level FlightAware Approximate
Mon 07:05:00 PM 12.3593 -8.0247 300° West  Level FlightAware Approximate
Mon 07:06:00 PM 12.4227 -8.1383 300° West  Level FlightAware Approximate
Mon 07:07:00 PM 12.4860 -8.2520 300° West  Level FlightAware Approximate
Mon 07:08:00 PM 12.5492 -8.3657 300° West  Level FlightAware Approximate
Mon 07:09:00 PM 12.6125 -8.4795 300° West  Level FlightAware Approximate
Mon 07:10:00 PM 12.6756 -8.5933 300° West  Level FlightAware Approximate
Mon 07:11:00 PM 12.7388 -8.7072 300° West  Level FlightAware Approximate
Mon 07:12:00 PM 12.8019 -8.8212 300° West  Level FlightAware Approximate
Mon 07:13:00 PM 12.8649 -8.9352 300° West  Level FlightAware Approximate
Mon 07:14:00 PM 12.9279 -9.0493 300° West  Level FlightAware Approximate
Mon 07:15:00 PM 12.9908 -9.1634 300° West  Level FlightAware Approximate
Mon 07:16:00 PM 13.0537 -9.2776 299° West  Level FlightAware Approximate
Mon 07:17:00 PM 13.1165 -9.3918 299° West  Level FlightAware Approximate
Mon 07:18:00 PM 13.1793 -9.5061 299° West  Level FlightAware Approximate
Mon 07:19:00 PM 13.2420 -9.6205 299° West  Level FlightAware Approximate
Mon 07:20:00 PM 13.3047 -9.7349 299° West  Level FlightAware Approximate
Mon 07:21:00 PM 13.3673 -9.8494 299° West  Level FlightAware Approximate
Mon 07:22:00 PM 13.4299 -9.9639 299° West  Level FlightAware Approximate
Mon 07:23:00 PM 13.4924 -10.0785 299° West  Level FlightAware Approximate
Mon 07:24:00 PM 13.5549 -10.1932 299° West  Level FlightAware Approximate
Mon 07:25:00 PM 13.6173 -10.3079 299° West  Level FlightAware Approximate
Mon 07:26:00 PM 13.6797 -10.4227 299° West  Level FlightAware Approximate
Mon 07:27:00 PM 13.7420 -10.5375 299° West  Level FlightAware Approximate
Mon 07:28:00 PM 13.8043 -10.6524 299° West  Level FlightAware Approximate
Mon 07:29:00 PM 13.8665 -10.7674 299° West  Level FlightAware Approximate
Mon 07:30:00 PM 13.9286 -10.8824 299° West  Level FlightAware Approximate
Mon 07:31:00 PM 13.9907 -10.9975 299° West  Level FlightAware Approximate
Mon 07:32:00 PM 14.0528 -11.1126 299° West  Level FlightAware Approximate
Mon 07:33:00 PM 14.1148 -11.2278 299° West  Level FlightAware Approximate
Mon 07:34:00 PM 14.1767 -11.3431 299° West  Level FlightAware Approximate
Mon 07:35:00 PM 14.2386 -11.4584 299° West  Level FlightAware Approximate
Mon 07:36:00 PM 14.3004 -11.5738 299° West  Level FlightAware Approximate
Mon 07:37:00 PM 14.3622 -11.6893 299° West  Level FlightAware Approximate
Mon 07:38:00 PM 14.4239 -11.8048 299° West  Level FlightAware Approximate
Mon 07:39:00 PM 14.4855 -11.9204 299° West  Level FlightAware Approximate
Mon 07:40:00 PM 14.5471 -12.0361 299° West  Level FlightAware Approximate
Mon 07:41:00 PM 14.6087 -12.1518 299° West  Level FlightAware Approximate
Mon 07:42:00 PM 14.6702 -12.2676 299° West  Level FlightAware Approximate
Mon 07:43:00 PM 14.7316 -12.3834 299° West  Level FlightAware Approximate
Mon 07:44:00 PM 14.7930 -12.4993 299° West  Level FlightAware Approximate
Mon 07:45:00 PM 14.8543 -12.6153 299° West  Level FlightAware Approximate
Mon 07:46:00 PM 14.9156 -12.7313 299° West  Level FlightAware Approximate
Mon 07:47:00 PM 14.9768 -12.8475 299° West  Level FlightAware Approximate
Mon 07:48:00 PM 15.0379 -12.9636 299° West  Level FlightAware Approximate
Mon 07:49:00 PM 15.0990 -13.0799 299° West  Level FlightAware Approximate
Mon 07:50:00 PM 15.1600 -13.1962 299° West  Level FlightAware Approximate
Mon 07:51:00 PM 15.2210 -13.3126 299° West  Level FlightAware Approximate
Mon 07:52:00 PM 15.2818 -13.4290 298° West  Level FlightAware Approximate
Mon 07:53:00 PM 15.3427 -13.5455 298° West  Level FlightAware Approximate
Mon 07:54:00 PM 15.4031 -13.6613 298° West  Level FlightAware Approximate
Mon 07:55:00 PM 15.4634 -13.7771 298° West  Level FlightAware Approximate
Mon 07:56:00 PM 15.5236 -13.8931 298° West  Level FlightAware Approximate
Mon 07:57:00 PM 15.5838 -14.0090 298° West  Level FlightAware Approximate
Mon 07:58:00 PM 15.6424 -14.1259 299° West  Level Estimated
Mon 07:59:00 PM 15.7037 -14.2414 299° West  Level FlightAware Approximate
Mon 08:00:00 PM 15.7649 -14.3569 299° West  Level FlightAware Approximate
Mon 08:01:00 PM 15.8260 -14.4724 299° West  Level FlightAware Approximate
Mon 08:02:00 PM 15.8871 -14.5881 299° West  Level FlightAware Approximate
Mon 08:03:00 PM 15.9482 -14.7038 299° West  Level FlightAware Approximate
Mon 08:04:00 PM 16.0091 -14.8196 299° West  Level FlightAware Approximate
Mon 08:05:00 PM 16.0700 -14.9355 299° West  Level FlightAware Approximate

Login

Don't have an account? Register now (free) for customized features, flight alerts, and more!